0C5 weather

Canadian Lakes Airport
Mecosta, Michigan, United States

Public forecast

Using degrees Fahrenheit for public forecast. Weather courtesy of forecast.io.

Closest aviation weather report (METAR) to Canadian Lakes Airport

Closest report is Roben Hood Airport, 13.1 nm (24.2 km) NW. Retrieved 2020/08/07 12:35 UTC (8 minutes ago):

KRQB 071235Z AUTO 00000KT 10SM CLR 15/14 A3020 RMK AO2 T01540135

Closest aviation forecast (TAF) to Canadian Lakes Airport

Closest forecast is Gerald R. Ford International Airport, 43.1 nm (79.8 km) SSW. Retrieved 2020/08/07 12:33 UTC (10 minutes ago):

TAF KGRR 071130Z 0712/0812 00000KT P6SM SKC FM071400 10005KT P6SM SCT050 FM080000 VRB03KT P6SM SKC